createdAt,value
2023-03-25T00:02:38.494Z,100842.75
2023-03-25T00:05:15.446Z,100845.31
2023-03-25T00:07:57.575Z,100868.13
2023-03-25T00:10:38.473Z,100862.81
2023-03-25T00:16:15.347Z,100882.34
2023-03-25T00:18:50.553Z,100875.06
2023-03-25T00:21:46.729Z,100889.78
2023-03-25T00:24:29.802Z,100897.06
2023-03-25T00:27:08.265Z,100913.25
2023-03-25T00:29:58.097Z,100911.41
2023-03-25T00:32:39.324Z,100887.34
2023-03-25T00:35:24.407Z,100889.16
2023-03-25T00:38:04.457Z,100886.97
2023-03-25T00:41:16.155Z,100888.28
2023-03-25T00:44:03.720Z,100877.47
2023-03-25T00:46:44.794Z,100894.09
2023-03-25T00:52:42.430Z,100871.50
2023-03-25T00:55:39.124Z,100866.28
2023-03-25T00:58:42.114Z,100866.97
2023-03-25T01:01:21.626Z,100866.81
2023-03-25T01:04:01.922Z,100856.75
2023-03-25T01:06:43.308Z,100864.84
2023-03-25T01:12:07.447Z,100858.19
2023-03-25T01:14:51.984Z,100858.44
2023-03-25T01:17:30.317Z,100882.81
2023-03-25T01:20:21.124Z,100875.88
2023-03-25T01:23:13.622Z,100845.13
2023-03-25T01:25:49.413Z,100865.25
2023-03-25T01:28:24.816Z,100874.25
2023-03-25T01:31:09.435Z,100858.13
2023-03-25T01:33:52.597Z,100872.56
2023-03-25T01:36:34.398Z,100859.09
2023-03-25T01:39:18.129Z,100867.19
2023-03-25T01:42:10.893Z,100861.41
2023-03-25T01:44:46.502Z,100874.47
2023-03-25T01:47:35.001Z,100835.56
2023-03-25T01:50:20.587Z,100864.97
2023-03-25T01:52:53.208Z,100849.44
2023-03-25T01:55:26.953Z,100847.53
2023-03-25T02:00:54.044Z,100849.22
2023-03-25T02:03:27.534Z,100846.69
2023-03-25T02:06:44.411Z,100833.28
2023-03-25T02:09:24.232Z,100852.81
2023-03-25T02:14:54.999Z,100864.38
2023-03-25T02:18:06.654Z,100888.56
2023-03-25T02:21:31.568Z,100883.47
2023-03-25T02:24:21.312Z,100879.09
2023-03-25T02:27:15.689Z,100878.69
2023-03-25T02:36:52.495Z,100876.06
2023-03-25T02:40:08.018Z,100865.16
2023-03-25T02:43:02.874Z,100843.69
2023-03-25T02:45:52.246Z,100854.69
2023-03-25T02:49:00.377Z,100876.47
2023-03-25T02:51:39.662Z,100865.47
2023-03-25T02:54:34.480Z,100847.31
2023-03-25T02:57:14.915Z,100863.06
2023-03-25T02:59:50.881Z,100841.97
2023-03-25T03:05:47.799Z,100854.59
2023-03-25T03:08:46.683Z,100845.31
2023-03-25T03:11:31.914Z,100839.00
2023-03-25T03:14:28.447Z,100839.47
2023-03-25T03:17:26.651Z,100809.88
2023-03-25T03:20:29.913Z,100788.00
2023-03-25T03:23:47.584Z,100806.59
2023-03-25T03:29:44.125Z,100801.72
2023-03-25T03:32:35.081Z,100778.53
2023-03-25T03:35:27.003Z,100799.75
2023-03-25T03:38:23.832Z,100772.91
2023-03-25T03:41:02.909Z,100778.91
2023-03-25T03:44:25.721Z,100773.28
2023-03-25T03:47:16.358Z,100735.25
2023-03-25T03:50:06.579Z,100735.13
2023-03-25T03:52:58.632Z,100726.78
2023-03-25T03:59:00.767Z,100739.84
2023-03-25T04:01:59.686Z,100733.53
2023-03-25T04:04:31.934Z,100717.69
2023-03-25T04:07:25.409Z,100717.97
2023-03-25T04:10:21.643Z,100686.88
2023-03-25T04:13:05.080Z,100694.13
2023-03-25T04:15:41.175Z,100674.91
2023-03-25T04:21:36.972Z,100660.97
2023-03-25T04:24:10.826Z,100645.44
2023-03-25T04:26:54.706Z,100654.50
2023-03-25T04:29:54.479Z,100657.75
2023-03-25T04:32:31.538Z,100631.19
2023-03-25T04:38:06.421Z,100607.91
2023-03-25T04:41:05.062Z,100606.78
2023-03-25T04:43:54.338Z,100613.41
2023-03-25T04:46:30.677Z,100599.59
2023-03-25T04:49:12.480Z,100601.28
2023-03-25T04:52:03.845Z,100589.72
2023-03-25T04:55:05.248Z,100581.22
2023-03-25T04:57:47.161Z,100585.06
2023-03-25T05:00:19.595Z,100594.34
2023-03-25T05:06:04.312Z,100586.59
2023-03-25T05:08:49.954Z,100610.16
2023-03-25T05:11:44.085Z,100613.25
2023-03-25T05:14:24.916Z,100603.41
2023-03-25T05:17:09.460Z,100598.31
2023-03-25T05:20:05.002Z,100602.97
2023-03-25T05:23:16.362Z,100621.59
2023-03-25T05:26:17.441Z,100609.16
2023-03-25T05:28:53.584Z,100605.53
2023-03-25T05:35:08.269Z,100601.41
2023-03-25T05:38:05.351Z,100611.03
2023-03-25T05:40:55.861Z,100629.50
2023-03-25T05:43:30.841Z,100606.34
2023-03-25T05:46:09.400Z,100591.97
2023-03-25T05:49:00.157Z,100597.72
2023-03-25T05:52:00.184Z,100574.88
2023-03-25T05:54:48.777Z,100572.06
2023-03-25T06:00:37.350Z,100575.59
2023-03-25T06:03:34.580Z,100591.97
2023-03-25T06:06:07.890Z,100599.84
2023-03-25T06:08:48.047Z,100584.19
2023-03-25T06:11:37.946Z,100604.53
2023-03-25T06:14:17.168Z,100613.41
2023-03-25T06:16:59.065Z,100602.69
2023-03-25T06:19:53.415Z,100588.59
2023-03-25T06:22:23.752Z,100588.72
2023-03-25T06:25:01.254Z,100596.03
2023-03-25T06:27:55.736Z,100577.97
2023-03-25T06:30:28.918Z,100588.16
2023-03-25T06:33:10.445Z,100581.22
2023-03-25T06:36:02.957Z,100574.47
2023-03-25T06:38:42.070Z,100571.78
2023-03-25T06:41:36.990Z,100571.78
2023-03-25T06:44:38.738Z,100566.41
2023-03-25T06:47:25.496Z,100565.13
2023-03-25T06:50:13.898Z,100556.53
2023-03-25T06:56:06.057Z,100538.19
2023-03-25T06:58:43.556Z,100544.66
2023-03-25T07:01:37.666Z,100522.22
2023-03-25T07:04:23.599Z,100526.59
2023-03-25T07:07:02.750Z,100543.25
2023-03-25T07:09:55.314Z,100526.75
2023-03-25T07:12:37.792Z,100521.38
2023-03-25T07:15:19.801Z,100511.34
2023-03-25T07:18:02.441Z,100515.03
2023-03-25T07:20:46.928Z,100529.97
2023-03-25T07:23:22.581Z,100511.34
2023-03-25T07:26:04.510Z,100523.06
2023-03-25T07:28:47.001Z,100480.06
2023-03-25T07:34:12.117Z,100489.91
2023-03-25T07:36:55.455Z,100487.94
2023-03-25T07:39:48.987Z,100492.44
2023-03-25T07:42:26.224Z,100484.84
2023-03-25T07:45:11.335Z,100495.13
2023-03-25T07:47:57.320Z,100501.50
2023-03-25T07:50:32.740Z,100511.50
2023-03-25T07:53:24.470Z,100484.56
2023-03-25T07:56:05.830Z,100491.19
2023-03-25T07:59:00.988Z,100491.91
2023-03-25T08:01:39.088Z,100513.63
2023-03-25T08:04:12.206Z,100483.16
2023-03-25T08:06:50.208Z,100484.16
2023-03-25T08:09:35.026Z,100486.41
2023-03-25T08:12:21.683Z,100499.66
2023-03-25T08:15:03.757Z,100491.63
2023-03-25T08:17:54.361Z,100494.88
2023-03-25T08:20:47.772Z,100491.66
2023-03-25T08:23:41.164Z,100484.28
2023-03-25T08:26:16.497Z,100492.19
2023-03-25T08:28:52.142Z,100503.19
2023-03-25T08:31:34.942Z,100497.69
2023-03-25T08:34:37.922Z,100506.72
2023-03-25T08:37:16.472Z,100493.34
2023-03-25T08:40:04.658Z,100496.41
2023-03-25T08:42:55.165Z,100491.22
2023-03-25T08:45:55.408Z,100485.13
2023-03-25T08:48:45.501Z,100501.66
2023-03-25T08:51:21.185Z,100473.84
2023-03-25T08:53:56.706Z,100483.72
2023-03-25T08:56:32.468Z,100504.34
2023-03-25T08:59:41.132Z,100506.31
2023-03-25T09:02:35.236Z,100508.56
2023-03-25T09:05:25.865Z,100492.63
2023-03-25T09:07:56.212Z,100500.09
2023-03-25T09:10:38.132Z,100502.91
2023-03-25T09:13:26.824Z,100517.44
2023-03-25T09:16:17.248Z,100498.53
2023-03-25T09:18:50.139Z,100512.06
2023-03-25T09:21:19.989Z,100509.53
2023-03-25T09:23:54.421Z,100497.97
2023-03-25T09:26:31.170Z,100513.63
2023-03-25T09:29:09.495Z,100492.16
2023-03-25T09:32:16.403Z,100514.47
2023-03-25T09:34:52.810Z,100504.59
2023-03-25T09:37:31.762Z,100499.81
2023-03-25T09:40:13.512Z,100503.19
2023-03-25T09:43:15.067Z,100517.84
2023-03-25T09:46:06.019Z,100522.78
2023-03-25T09:49:01.943Z,100505.56
2023-03-25T09:51:59.975Z,100513.91
2023-03-25T09:54:48.432Z,100503.47
2023-03-25T09:57:25.701Z,100515.03
2023-03-25T10:00:03.019Z,100503.47
2023-03-25T10:02:57.118Z,100506.72
2023-03-25T10:05:47.624Z,100523.09
2023-03-25T10:08:54.382Z,100508.53
2023-03-25T10:11:51.967Z,100534.63
2023-03-25T10:14:34.130Z,100516.31
2023-03-25T10:17:24.365Z,100529.56
2023-03-25T10:20:02.426Z,100524.59
2023-03-25T10:23:23.696Z,100524.91
2023-03-25T10:26:14.860Z,100530.53
2023-03-25T10:28:53.922Z,100517.97
2023-03-25T10:31:38.549Z,100524.16
2023-03-25T10:34:55.754Z,100544.09
2023-03-25T10:37:38.351Z,100538.00
2023-03-25T10:40:39.144Z,100572.56
2023-03-25T10:43:41.590Z,100559.88
2023-03-25T10:46:26.157Z,100550.53
2023-03-25T10:49:01.687Z,100545.34
2023-03-25T10:51:47.212Z,100556.72
2023-03-25T10:54:21.710Z,100555.31
2023-03-25T10:57:03.261Z,100572.13
2023-03-25T11:00:08.321Z,100575.94
2023-03-25T11:02:43.707Z,100565.75
2023-03-25T11:05:22.975Z,100556.72
2023-03-25T11:08:18.206Z,100558.72
2023-03-25T11:11:11.803Z,100555.31
2023-03-25T11:13:42.948Z,100563.25
2023-03-25T11:16:29.206Z,100566.88
2023-03-25T11:19:02.200Z,100583.81
2023-03-25T11:21:56.843Z,100591.44
2023-03-25T11:24:53.882Z,100603.41
2023-03-25T11:27:44.479Z,100601.31
2023-03-25T11:30:27.564Z,100594.50
2023-03-25T11:33:11.821Z,100599.00
2023-03-25T11:36:34.324Z,100629.50
2023-03-25T11:39:27.822Z,100622.75
2023-03-25T11:42:09.597Z,100621.00
2023-03-25T11:44:43.998Z,100624.25
2023-03-25T11:47:17.234Z,100638.34
2023-03-25T11:49:51.433Z,100626.94
2023-03-25T11:52:28.178Z,100636.94
2023-03-25T11:55:15.053Z,100621.84
2023-03-25T11:57:56.367Z,100639.34
2023-03-25T12:00:46.946Z,100629.16
2023-03-25T12:06:15.763Z,100648.81
2023-03-25T12:09:27.395Z,100627.72
2023-03-25T12:12:30.141Z,100651.47
2023-03-25T12:15:28.390Z,100652.59
2023-03-25T12:18:38.576Z,100658.09
2023-03-25T12:21:44.777Z,100655.81
2023-03-25T12:24:38.889Z,100661.63
2023-03-25T12:27:18.291Z,100664.44
2023-03-25T12:30:24.075Z,100668.81
2023-03-25T12:32:56.475Z,100676.97
2023-03-25T12:36:19.589Z,100662.03
2023-03-25T12:39:01.608Z,100651.81
2023-03-25T12:41:55.503Z,100660.44
2023-03-25T12:45:00.308Z,100669.41
2023-03-25T12:47:48.971Z,100666.63
2023-03-25T12:50:39.734Z,100684.97
2023-03-25T12:53:52.310Z,100674.34
2023-03-25T12:57:03.069Z,100684.63
2023-03-25T12:59:45.164Z,100709.75
2023-03-25T13:02:24.258Z,100689.72
2023-03-25T13:05:25.877Z,100692.00
2023-03-25T13:08:12.565Z,100678.69
2023-03-25T13:10:46.490Z,100688.41
2023-03-25T13:13:28.581Z,100690.16
2023-03-25T13:16:37.511Z,100670.47
2023-03-25T13:19:20.196Z,100698.03
2023-03-25T13:22:00.116Z,100688.91
2023-03-25T13:24:53.882Z,100692.28
2023-03-25T13:27:31.257Z,100681.84
2023-03-25T13:30:05.278Z,100683.28
2023-03-25T13:33:07.003Z,100666.56
2023-03-25T13:35:45.844Z,100681.84
2023-03-25T13:38:38.824Z,100674.78
2023-03-25T13:41:32.281Z,100651.00
2023-03-25T13:44:12.346Z,100675.75
2023-03-25T13:47:28.149Z,100656.34
2023-03-25T13:50:15.261Z,100656.22
2023-03-25T13:52:58.139Z,100664.88
2023-03-25T13:55:48.360Z,100651.97
2023-03-25T13:58:48.433Z,100680.53
2023-03-25T14:01:55.297Z,100649.84
2023-03-25T14:04:46.437Z,100658.31
2023-03-25T14:07:36.558Z,100672.19
2023-03-25T14:10:26.442Z,100663.03
2023-03-25T14:13:05.478Z,100644.75
2023-03-25T14:15:46.895Z,100661.22
2023-03-25T14:18:22.406Z,100650.16
2023-03-25T14:21:00.961Z,100641.41
2023-03-25T14:23:47.011Z,100653.13
2023-03-25T14:26:23.508Z,100647.44
2023-03-25T14:28:58.155Z,100652.66
2023-03-25T14:31:40.294Z,100639.94
2023-03-25T14:34:10.843Z,100664.16
2023-03-25T14:36:48.992Z,100660.63
2023-03-25T14:39:39.585Z,100662.44
2023-03-25T14:42:32.473Z,100662.44
2023-03-25T14:45:53.050Z,100664.25
2023-03-25T14:48:47.373Z,100650.69
2023-03-25T14:51:31.951Z,100658.31
2023-03-25T14:54:28.154Z,100651.00
2023-03-25T14:57:31.831Z,100651.97
2023-03-25T15:03:22.176Z,100616.81
2023-03-25T15:12:13.536Z,100626.03
2023-03-25T15:14:54.113Z,100607.81
2023-03-25T15:18:07.188Z,100630.72
2023-03-25T15:20:45.164Z,100608.38
2023-03-25T15:23:26.441Z,100630.97
2023-03-25T15:26:12.171Z,100599.34
2023-03-25T15:29:00.705Z,100611.47
2023-03-25T15:32:05.150Z,100630.13
2023-03-25T15:34:58.953Z,100605.53
2023-03-25T15:38:06.038Z,100604.56
2023-03-25T15:41:14.810Z,100627.56
2023-03-25T15:44:21.571Z,100615.31
2023-03-25T15:47:14.532Z,100598.94
2023-03-25T15:50:11.226Z,100609.13
2023-03-25T15:53:11.983Z,100602.91
2023-03-25T15:56:14.828Z,100589.63
2023-03-25T15:59:02.805Z,100602.19
2023-03-25T16:01:37.737Z,100582.56
2023-03-25T16:04:20.765Z,100580.72
2023-03-25T16:06:58.890Z,100586.38
2023-03-25T16:09:37.826Z,100587.91
2023-03-25T16:12:29.314Z,100609.38
2023-03-25T16:14:59.313Z,100608.91
2023-03-25T16:20:44.462Z,100600.44
2023-03-25T16:23:36.178Z,100598.88
2023-03-25T16:26:20.132Z,100600.44
2023-03-25T16:29:00.029Z,100605.81
2023-03-25T16:31:53.456Z,100583.63
2023-03-25T16:34:26.165Z,100580.09
2023-03-25T16:39:40.583Z,100578.28
2023-03-25T16:42:32.630Z,100583.38
2023-03-25T16:45:23.584Z,100580.09
2023-03-25T16:47:59.442Z,100584.22
2023-03-25T16:50:44.381Z,100569.41
2023-03-25T16:53:17.680Z,100593.66
2023-03-25T16:56:06.729Z,100582.38
2023-03-25T16:58:57.272Z,100583.38
2023-03-25T17:01:31.543Z,100575.59
2023-03-25T17:04:26.428Z,100586.47
2023-03-25T17:07:13.547Z,100567.41
2023-03-25T17:10:06.759Z,100579.00
2023-03-25T17:15:43.218Z,100558.38
2023-03-25T17:18:16.723Z,100572.78
2023-03-25T17:20:57.777Z,100569.22
2023-03-25T17:23:46.112Z,100578.88
2023-03-25T17:26:35.078Z,100549.06
2023-03-25T17:29:20.725Z,100550.28
2023-03-25T17:32:01.945Z,100574.50
2023-03-25T17:34:44.867Z,100579.00
2023-03-25T17:37:18.746Z,100554.28
2023-03-25T17:39:53.655Z,100562.75
2023-03-25T17:42:33.648Z,100568.94
2023-03-25T17:45:09.467Z,100556.13
2023-03-25T17:47:44.882Z,100552.34
2023-03-25T17:50:37.308Z,100558.81
2023-03-25T17:53:23.559Z,100523.00
2023-03-25T17:55:59.793Z,100543.75
2023-03-25T17:58:35.196Z,100538.56
2023-03-25T18:01:05.580Z,100522.84
2023-03-25T18:03:48.079Z,100538.56
2023-03-25T18:06:33.861Z,100526.53
2023-03-25T18:09:04.299Z,100521.59
2023-03-25T18:11:42.769Z,100511.31
2023-03-25T18:14:16.005Z,100511.88
2023-03-25T18:16:57.516Z,100513.72
2023-03-25T18:19:39.907Z,100530.47
2023-03-25T18:24:57.669Z,100515.94
2023-03-25T18:27:40.875Z,100527.34
2023-03-25T18:30:42.903Z,100528.91
2023-03-25T18:33:15.762Z,100512.00
2023-03-25T18:35:58.851Z,100517.34
2023-03-25T18:38:48.719Z,100544.31
2023-03-25T18:41:30.306Z,100531.31
2023-03-25T18:44:09.159Z,100544.16
2023-03-25T18:47:18.767Z,100513.13
2023-03-25T18:50:04.785Z,100512.00
2023-03-25T18:52:40.127Z,100522.91
2023-03-25T18:55:13.465Z,100503.97
2023-03-25T18:57:52.166Z,100489.31
2023-03-25T19:00:56.542Z,100511.47
2023-03-25T19:03:45.433Z,100498.44
2023-03-25T19:06:42.610Z,100527.09
2023-03-25T19:09:20.884Z,100526.50
2023-03-25T19:11:50.724Z,100530.72
2023-03-25T19:14:38.242Z,100518.41
2023-03-25T19:17:35.538Z,100532.13
2023-03-25T19:20:09.269Z,100518.31
2023-03-25T19:22:48.747Z,100515.63
2023-03-25T19:25:22.887Z,100549.34
2023-03-25T19:27:56.079Z,100529.56
2023-03-25T19:30:38.776Z,100538.06
2023-03-25T19:36:06.442Z,100517.72
2023-03-25T19:38:53.448Z,100521.94
2023-03-25T19:41:28.898Z,100537.13
2023-03-25T19:44:04.137Z,100523.06
2023-03-25T19:46:37.139Z,100531.78
2023-03-25T19:49:28.939Z,100546.47
2023-03-25T19:52:11.840Z,100529.63
2023-03-25T19:54:48.443Z,100549.00
2023-03-25T19:57:23.939Z,100535.44
2023-03-25T20:00:03.792Z,100540.81
2023-03-25T20:02:36.630Z,100532.03
2023-03-25T20:05:16.781Z,100561.38
2023-03-25T20:07:58.948Z,100533.69
2023-03-25T20:10:36.412Z,100527.09
2023-03-25T20:13:18.245Z,100530.63
2023-03-25T20:15:59.932Z,100526.66
2023-03-25T20:18:37.938Z,100544.47
2023-03-25T20:21:19.433Z,100535.38
2023-03-25T20:24:08.226Z,100553.19
2023-03-25T20:26:49.776Z,100538.13
2023-03-25T20:29:23.546Z,100539.88
2023-03-25T20:32:01.799Z,100522.16
2023-03-25T20:34:52.507Z,100532.97
2023-03-25T20:37:27.218Z,100546.81
2023-03-25T20:39:57.484Z,100537.59
2023-03-25T20:42:27.702Z,100561.34
2023-03-25T20:45:06.601Z,100552.41
2023-03-25T20:47:45.391Z,100557.16
2023-03-25T20:50:27.055Z,100573.41
2023-03-25T20:53:01.976Z,100559.03
2023-03-25T20:55:34.937Z,100570.22
2023-03-25T20:58:08.598Z,100550.84
2023-03-25T21:00:41.407Z,100562.84
2023-03-25T21:03:22.402Z,100568.06
2023-03-25T21:06:04.862Z,100541.78
2023-03-25T21:08:49.466Z,100561.41
2023-03-25T21:11:25.202Z,100559.25
2023-03-25T21:14:04.130Z,100551.16
2023-03-25T21:16:39.592Z,100556.84
2023-03-25T21:19:20.294Z,100562.91
2023-03-25T21:21:52.684Z,100570.53
2023-03-25T21:24:26.588Z,100575.88
2023-03-25T21:27:00.292Z,100571.53
2023-03-25T21:29:39.429Z,100566.19
2023-03-25T21:32:15.313Z,100568.13
2023-03-25T21:34:48.081Z,100587.09
2023-03-25T21:37:24.599Z,100574.22
2023-03-25T21:40:04.102Z,100580.56
2023-03-25T21:42:42.837Z,100585.91
2023-03-25T21:45:31.838Z,100595.72
2023-03-25T21:48:17.630Z,100585.91
2023-03-25T21:51:01.092Z,100604.47
2023-03-25T21:53:35.893Z,100614.06
2023-03-25T21:56:42.481Z,100604.47
2023-03-25T21:59:24.079Z,100591.16
2023-03-25T22:02:00.563Z,100610.91
2023-03-25T22:04:43.724Z,100610.78
2023-03-25T22:07:17.269Z,100616.50
2023-03-25T22:09:49.172Z,100620.31
2023-03-25T22:15:17.408Z,100625.41
2023-03-25T22:17:47.314Z,100612.03
2023-03-25T22:20:24.342Z,100606.53
2023-03-25T22:23:06.340Z,100609.22
2023-03-25T22:28:52.722Z,100614.41
2023-03-25T22:31:36.201Z,100628.13
2023-03-25T22:34:19.450Z,100618.53
2023-03-25T22:37:06.047Z,100611.75
2023-03-25T22:40:02.729Z,100645.75
2023-03-25T22:42:32.973Z,100620.88
2023-03-25T22:45:12.846Z,100618.91
2023-03-25T22:48:02.427Z,100620.88
2023-03-25T22:50:37.921Z,100647.22
2023-03-25T22:53:15.264Z,100642.72
2023-03-25T22:55:45.107Z,100653.75
2023-03-25T22:58:14.910Z,100638.38
2023-03-25T23:00:56.576Z,100660.66
2023-03-25T23:03:39.265Z,100660.94
2023-03-25T23:09:02.882Z,100653.03
2023-03-25T23:11:50.586Z,100665.31
2023-03-25T23:14:26.376Z,100664.06
2023-03-25T23:17:06.834Z,100680.47
2023-03-25T23:19:51.224Z,100658.97
2023-03-25T23:22:31.925Z,100679.59
2023-03-25T23:25:09.777Z,100659.34
2023-03-25T23:27:48.780Z,100651.94
2023-03-25T23:30:42.157Z,100671.69
2023-03-25T23:33:20.627Z,100677.88
2023-03-25T23:35:54.592Z,100665.44
2023-03-25T23:38:27.113Z,100681.53
2023-03-25T23:41:17.877Z,100667.00
2023-03-25T23:46:33.362Z,100693.44
2023-03-25T23:49:10.910Z,100669.28
2023-03-25T23:51:52.998Z,100668.69
2023-03-25T23:54:33.180Z,100686.66
2023-03-25T23:57:18.910Z,100675.59
